Time;durP1;ratioP1;P1;durP2;ratioP2;P2;SDS_P1;SDS_P2;PMS_P1;PMS_P2;Temp;Humidity;BMP_temperature;BMP_pressure;BME280_temperature;BME280_humidity;BME280_pressure;Samples;Min_cycle;Max_cycle;Signal;HPM_P1;HPM_P2
2022/02/14 00:00:37;;;;;;;2.55;0.70;;;24.70;62.50;;;;;;4169537;28;20100;-61
2022/02/14 00:02:59;;;;;;;2.35;0.70;;;24.70;62.50;;;;;;4175217;28;20043;-61
2022/02/14 00:05:22;;;;;;;1.85;0.88;;;24.70;62.50;;;;;;4189357;28;20195;-57
2022/02/14 00:07:44;;;;;;;1.83;0.65;;;24.80;62.40;;;;;;4193967;28;20093;-63
2022/02/14 00:10:09;;;;;;;4.70;0.70;;;24.80;62.40;;;;;;4186680;28;20046;-63
2022/02/14 00:12:33;;;;;;;4.18;0.98;;;24.90;63.00;;;;;;4181346;28;20154;-60
2022/02/14 00:14:55;;;;;;;2.08;0.82;;;24.90;62.40;;;;;;4188025;28;20400;-62
2022/02/14 00:17:18;;;;;;;1.48;0.70;;;25.00;62.40;;;;;;4189057;28;20582;-61
2022/02/14 00:19:40;;;;;;;1.52;0.65;;;25.00;62.40;;;;;;4177136;28;20052;-62
2022/02/14 00:22:03;;;;;;;2.00;0.55;;;25.00;62.40;;;;;;4196395;28;20110;-62
2022/02/14 00:24:25;;;;;;;2.22;0.90;;;25.00;62.40;;;;;;4191787;28;20671;-62
2022/02/14 00:26:53;;;;;;;2.65;0.77;;;25.10;62.30;;;;;;4189091;28;20047;-64
2022/02/14 00:29:16;;;;;;;1.65;0.52;;;25.10;62.40;;;;;;4187466;28;20036;-61
2022/02/14 00:31:38;;;;;;;1.48;0.82;;;25.10;62.40;;;;;;4199663;28;20146;-61
2022/02/14 00:34:01;;;;;;;2.05;0.57;;;25.10;62.30;;;;;;4193350;28;20087;-62
2022/02/14 00:36:24;;;;;;;1.17;0.60;;;25.20;61.70;;;;;;4196154;28;20035;-61
2022/02/14 00:38:46;;;;;;;1.40;0.88;;;25.20;62.20;;;;;;4189286;28;20039;-60
2022/02/14 00:41:09;;;;;;;2.03;0.52;;;25.30;62.30;;;;;;4192518;28;20522;-62
2022/02/14 00:43:32;;;;;;;2.85;0.80;;;25.30;62.10;;;;;;4198840;28;20069;-61
2022/02/14 00:45:54;;;;;;;1.38;0.73;;;25.40;62.20;;;;;;4194605;28;20586;-59
2022/02/14 00:48:17;;;;;;;3.63;0.93;;;25.40;62.00;;;;;;4191821;28;20030;-61
2022/02/14 00:50:40;;;;;;;0.93;0.47;;;25.40;62.00;;;;;;4196153;28;20039;-60
2022/02/14 00:53:04;;;;;;;1.35;0.52;;;25.50;62.20;;;;;;4199649;28;20044;-60
2022/02/14 00:55:27;;;;;;;2.45;0.77;;;25.50;62.10;;;;;;4199813;28;20028;-60
2022/02/14 00:57:49;;;;;;;1.95;0.40;;;25.50;62.10;;;;;;4193322;28;20038;-60
2022/02/14 01:00:14;;;;;;;1.70;0.73;;;25.50;62.20;;;;;;4182420;28;20045;-59
2022/02/14 01:02:37;;;;;;;1.83;0.60;;;25.60;62.40;;;;;;4173327;28;20044;-59
2022/02/14 01:04:59;;;;;;;2.95;0.93;;;25.60;62.30;;;;;;4174405;28;20488;-60
2022/02/14 01:07:23;;;;;;;1.35;0.50;;;25.60;62.20;;;;;;4180260;28;20378;-60
2022/02/14 01:09:45;;;;;;;;;;;25.60;62.20;;;;;;4175990;28;20020;-59
2022/02/14 01:12:08;;;;;;;1.70;0.70;;;25.70;62.20;;;;;;4176865;28;19912;-59
2022/02/14 01:14:31;;;;;;;1.30;0.68;;;25.70;62.20;;;;;;4176299;28;20480;-60
2022/02/14 01:16:57;;;;;;;2.40;0.50;;;25.70;62.10;;;;;;4171963;28;20501;-62
2022/02/14 01:19:20;;;;;;;1.00;0.40;;;25.80;62.10;;;;;;4165836;28;20527;-62
2022/02/14 01:21:42;;;;;;;2.47;0.50;;;25.80;62.00;;;;;;4181046;28;20538;-61
2022/02/14 01:24:05;;;;;;;1.17;0.40;;;25.80;62.00;;;;;;4176515;28;20046;-62
2022/02/14 01:26:28;;;;;;;2.28;1.00;;;25.80;61.90;;;;;;4179745;28;20039;-61
2022/02/14 01:28:51;;;;;;;1.95;0.80;;;25.90;62.00;;;;;;4177547;28;20240;-60
2022/02/14 01:31:13;;;;;;;2.05;0.70;;;25.90;62.00;;;;;;4164475;28;20045;-59
2022/02/14 01:33:36;;;;;;;8.30;0.65;;;26.00;62.00;;;;;;4180792;28;20047;-59
2022/02/14 01:35:58;;;;;;;3.85;0.57;;;26.00;62.00;;;;;;4173199;28;20427;-59
2022/02/14 01:38:21;;;;;;;3.58;0.85;;;26.10;62.10;;;;;;4179934;28;20785;-58
2022/02/14 01:40:43;;;;;;;3.28;0.68;;;26.10;62.00;;;;;;4166069;28;20460;-60
2022/02/14 01:43:06;;;;;;;6.25;0.90;;;26.10;61.90;;;;;;4171001;28;20056;-59
2022/02/14 01:45:28;;;;;;;1.80;0.55;;;26.10;61.90;;;;;;4161296;28;20080;-60
2022/02/14 01:47:51;;;;;;;1.95;0.50;;;26.20;62.10;;;;;;4184389;28;20070;-59
2022/02/14 01:50:16;;;;;;;1.08;0.43;;;26.20;62.10;;;;;;4176945;28;20479;-59
2022/02/14 01:52:40;;;;;;;2.13;0.70;;;26.30;62.00;;;;;;4178125;28;20114;-60
2022/02/14 01:55:03;;;;;;;;;;;26.30;61.80;;;;;;4176108;28;20029;-60
2022/02/14 01:57:27;;;;;;;2.53;0.77;;;26.30;61.70;;;;;;4175167;28;19939;-60
2022/02/14 01:59:49;;;;;;;2.53;0.68;;;26.30;61.50;;;;;;4170400;28;20045;-60
2022/02/14 02:02:12;;;;;;;2.00;0.70;;;26.30;61.50;;;;;;4186502;28;20747;-60
2022/02/14 02:04:35;;;;;;;4.40;0.93;;;26.40;61.20;;;;;;4181967;28;20046;-60
2022/02/14 02:06:57;;;;;;;1.48;0.52;;;26.40;61.00;;;;;;4202166;28;20290;-60
2022/02/14 02:09:20;;;;;;;3.75;0.80;;;26.40;60.90;;;;;;4196349;28;20040;-60
2022/02/14 02:14:25;;;;;;;1.95;0.55;;;26.50;60.80;;;;;;4191993;28;20032;-60
2022/02/14 02:16:46;;;;;;;;;;;;;;;;;;4197099;28;20052;-60
2022/02/14 02:19:09;;;;;;;2.05;0.80;;;26.50;61.20;;;;;;4198029;28;19919;-60
2022/02/14 02:21:31;;;;;;;1.92;0.80;;;26.50;60.50;;;;;;4190604;28;20095;-60
2022/02/14 02:23:58;;;;;;;2.95;0.75;;;26.60;60.40;;;;;;4182779;28;20097;-59
2022/02/14 02:26:20;;;;;;;2.33;1.05;;;26.60;60.40;;;;;;4192255;28;20524;-59
2022/02/14 02:28:42;;;;;;;2.15;0.60;;;26.60;60.50;;;;;;4180161;28;21072;-59
2022/02/14 02:31:06;;;;;;;1.08;0.40;;;26.60;61.20;;;;;;4184556;28;20364;-57
2022/02/14 02:33:32;;;;;;;1.50;0.63;;;26.70;60.70;;;;;;4196307;28;20473;-60
2022/02/14 02:35:54;;;;;;;1.75;0.60;;;26.70;60.80;;;;;;4196718;28;20916;-60
2022/02/14 02:38:18;;;;;;;2.75;0.82;;;26.80;60.80;;;;;;4168764;28;20075;-59
2022/02/14 02:40:40;;;;;;;1.95;0.80;;;26.80;60.80;;;;;;4196477;28;20935;-58
2022/02/14 02:43:03;;;;;;;1.15;0.50;;;26.80;60.80;;;;;;4194809;28;20032;-59
2022/02/14 02:45:25;;;;;;;1.08;0.57;;;26.80;60.80;;;;;;4179627;28;20841;-59
2022/02/14 02:47:48;;;;;;;2.30;0.77;;;26.90;61.00;;;;;;4181095;28;20086;-59
2022/02/14 02:50:11;;;;;;;1.98;0.73;;;26.90;60.90;;;;;;4184648;28;20373;-59
2022/02/14 02:52:33;;;;;;;3.35;0.88;;;27.00;60.90;;;;;;4188776;28;20039;-60
2022/02/14 02:54:56;;;;;;;2.70;1.13;;;27.00;60.80;;;;;;4188765;28;20410;-59
2022/02/14 02:57:19;;;;;;;2.10;0.52;;;27.10;60.90;;;;;;4196739;28;20724;-59
2022/02/14 02:59:44;;;;;;;2.65;0.65;;;27.10;60.80;;;;;;4196995;28;20543;-60
2022/02/14 03:02:07;;;;;;;2.58;0.70;;;27.10;60.80;;;;;;4197663;28;20208;-60
2022/02/14 03:04:29;;;;;;;2.33;0.70;;;27.20;60.80;;;;;;4194806;28;20043;-59
2022/02/14 03:06:52;;;;;;;2.60;0.70;;;27.20;60.70;;;;;;4190857;28;20117;-59
2022/02/14 03:09:15;;;;;;;3.10;0.57;;;27.30;60.80;;;;;;4188225;28;20401;-60
2022/02/14 03:11:40;;;;;;;3.20;0.70;;;27.30;60.80;;;;;;4184506;28;20051;-61
2022/02/14 03:14:04;;;;;;;1.67;0.52;;;27.30;60.70;;;;;;4180810;28;20029;-60
2022/02/14 03:16:27;;;;;;;1.23;0.68;;;27.40;61.40;;;;;;4185205;28;20114;-62
2022/02/14 03:18:49;;;;;;;2.00;0.80;;;27.40;60.80;;;;;;4176700;28;21887;-59
2022/02/14 03:21:13;;;;;;;2.92;1.05;;;27.40;60.70;;;;;;4174946;28;20053;-60
2022/02/14 03:23:36;;;;;;;3.05;1.00;;;27.50;60.70;;;;;;4179284;28;20028;-59
2022/02/14 03:25:58;;;;;;;3.38;1.00;;;27.50;60.70;;;;;;4185334;28;20558;-61
2022/02/14 03:28:21;;;;;;;0.90;0.65;;;27.50;60.60;;;;;;4181018;28;20448;-58
2022/02/14 03:30:44;;;;;;;3.97;0.80;;;27.50;60.60;;;;;;4177634;28;20055;-61
2022/02/14 03:33:06;;;;;;;3.10;1.10;;;27.60;60.70;;;;;;4181529;28;20059;-63
2022/02/14 03:35:29;;;;;;;3.53;0.75;;;27.60;60.60;;;;;;4180872;28;20035;-63
2022/02/14 03:37:51;;;;;;;2.75;0.90;;;27.60;60.50;;;;;;4179205;28;20036;-64
2022/02/14 03:40:13;;;;;;;2.03;0.93;;;27.70;60.40;;;;;;4195058;28;20043;-61
2022/02/14 03:42:36;;;;;;;1.48;0.68;;;27.70;60.40;;;;;;4181064;28;20131;-62
2022/02/14 03:44:58;;;;;;;2.97;0.70;;;27.70;60.30;;;;;;4193203;28;20115;-62
2022/02/14 03:47:21;;;;;;;2.20;0.70;;;27.80;60.30;;;;;;4183866;28;20106;-62
2022/02/14 03:49:43;;;;;;;2.72;0.85;;;27.80;60.20;;;;;;4185726;28;20036;-62
2022/02/14 03:52:07;;;;;;;4.45;0.90;;;27.80;60.20;;;;;;4191572;28;20483;-60
2022/02/14 03:54:29;;;;;;;5.88;1.00;;;27.90;60.30;;;;;;4194213;28;20123;-60
2022/02/14 03:56:52;;;;;;;2.50;1.05;;;27.90;60.00;;;;;;4195438;28;20063;-60
2022/02/14 03:59:14;;;;;;;2.70;1.13;;;27.90;59.70;;;;;;4185782;28;20422;-58
2022/02/14 04:01:37;;;;;;;4.80;1.27;;;27.90;59.40;;;;;;4180478;28;20050;-59
2022/02/14 04:03:59;;;;;;;3.75;1.30;;;28.00;59.40;;;;;;4199583;28;20039;-59
2022/02/14 04:06:21;;;;;;;8.32;1.40;;;28.00;59.60;;;;;;4193092;28;20031;-60
2022/02/14 04:08:44;;;;;;;4.93;1.38;;;28.00;59.80;;;;;;4187794;28;20467;-60
2022/02/14 04:11:06;;;;;;;3.17;1.10;;;28.10;59.80;;;;;;4185062;28;20077;-60
2022/02/14 04:13:29;;;;;;;4.25;1.13;;;28.10;59.80;;;;;;4176755;28;20647;-62
2022/02/14 04:15:51;;;;;;;3.08;0.85;;;28.20;59.90;;;;;;4191809;28;20496;-61
2022/02/14 04:18:14;;;;;;;3.42;0.98;;;28.20;59.90;;;;;;4194485;28;20054;-60
2022/02/14 04:20:36;;;;;;;5.85;1.13;;;28.30;60.00;;;;;;4193395;28;20048;-60
2022/02/14 04:22:59;;;;;;;4.05;1.15;;;28.30;60.00;;;;;;4185505;28;20044;-60
2022/02/14 04:25:21;;;;;;;2.83;0.70;;;28.40;59.90;;;;;;4194139;28;20044;-61
2022/02/14 04:27:44;;;;;;;2.75;0.70;;;28.50;59.90;;;;;;4178302;28;20419;-60
2022/02/14 04:30:08;;;;;;;2.08;0.88;;;28.50;59.90;;;;;;4177986;28;20040;-60
2022/02/14 04:32:31;;;;;;;1.38;0.63;;;28.60;59.90;;;;;;4175342;28;20064;-60
2022/02/14 04:34:53;;;;;;;1.75;0.80;;;28.60;59.80;;;;;;4170720;28;21542;-60
2022/02/14 04:37:16;;;;;;;2.60;0.75;;;28.70;59.80;;;;;;4188646;28;20036;-60
2022/02/14 04:39:39;;;;;;;1.05;0.50;;;28.80;59.80;;;;;;4193040;28;20207;-59
2022/02/14 04:42:01;;;;;;;1.17;0.40;;;28.80;59.60;;;;;;4169022;28;20048;-63
2022/02/14 04:44:23;;;;;;;3.38;0.60;;;28.90;59.80;;;;;;4194946;28;20125;-59
2022/02/14 04:46:47;;;;;;;2.88;0.80;;;29.00;59.70;;;;;;4198183;28;20498;-62
2022/02/14 04:49:11;;;;;;;4.43;0.90;;;29.00;59.50;;;;;;4181093;28;20033;-60
2022/02/14 04:51:34;;;;;;;2.15;1.13;;;29.00;59.40;;;;;;4196897;28;20027;-62
2022/02/14 04:56:04;;;;;;;1.63;0.93;;;29.10;59.50;;;;;;4139570;28;20063;-64
2022/02/14 04:58:26;;;;;;;1.10;0.50;;;29.10;59.40;;;;;;4149311;28;20063;-67
2022/02/14 05:00:49;;;;;;;1.35;0.73;;;29.20;59.40;;;;;;4151832;28;20448;-65
2022/02/14 05:03:11;;;;;;;0.85;0.60;;;29.30;59.40;;;;;;4167304;28;20753;-65
2022/02/14 05:05:34;;;;;;;5.13;0.85;;;29.30;59.20;;;;;;4167774;28;20029;-63
2022/02/14 05:07:56;;;;;;;1.50;0.50;;;29.40;59.20;;;;;;4158052;28;20369;-65
2022/02/14 05:10:20;;;;;;;3.08;0.70;;;29.50;59.20;;;;;;4150793;28;20048;-63
2022/02/14 05:12:42;;;;;;;2.35;0.52;;;29.50;59.20;;;;;;4156619;28;20122;-65
2022/02/14 05:15:06;;;;;;;1.67;0.52;;;29.60;59.10;;;;;;4133177;28;20038;-65
2022/02/14 05:17:29;;;;;;;1.17;0.50;;;29.60;59.10;;;;;;4144569;28;20037;-65
2022/02/14 05:19:51;;;;;;;1.38;0.52;;;29.70;58.90;;;;;;4150187;28;20415;-63
2022/02/14 05:22:14;;;;;;;1.50;0.60;;;29.80;58.90;;;;;;4152384;28;20052;-68
2022/02/14 05:24:37;;;;;;;2.67;1.03;;;29.90;58.90;;;;;;4147463;28;20060;-63
2022/02/14 05:26:59;;;;;;;3.73;1.03;;;29.90;58.20;;;;;;4165159;28;20048;-63
2022/02/14 05:29:22;;;;;;;1.55;0.80;;;30.00;58.10;;;;;;4164404;28;21184;-62
2022/02/14 05:31:44;;;;;;;2.28;1.15;;;30.00;58.10;;;;;;4149056;28;20174;-64
2022/02/14 05:34:06;;;;;;;2.53;1.10;;;30.10;58.20;;;;;;4149462;28;20981;-64
2022/02/14 05:36:29;;;;;;;2.88;0.85;;;30.20;58.10;;;;;;4149517;28;20129;-64
2022/02/14 05:38:51;;;;;;;2.28;0.82;;;30.20;58.10;;;;;;4137523;28;20109;-65
2022/02/14 05:41:14;;;;;;;2.67;0.82;;;30.30;58.00;;;;;;4163813;28;20056;-67
2022/02/14 05:43:37;;;;;;;1.23;0.60;;;30.40;58.00;;;;;;4165115;28;20037;-68
2022/02/14 05:45:59;;;;;;;2.75;0.80;;;30.50;57.90;;;;;;4162079;28;20775;-68
2022/02/14 05:48:26;;;;;;;3.47;0.93;;;30.50;57.90;;;;;;4162631;28;20400;-67
2022/02/14 05:50:48;;;;;;;2.63;0.77;;;30.60;57.90;;;;;;4155036;28;20060;-65
2022/02/14 05:53:11;;;;;;;1.63;0.57;;;30.60;57.90;;;;;;4160030;28;20029;-66
2022/02/14 05:55:33;;;;;;;0.93;0.50;;;30.60;57.90;;;;;;4164397;28;20452;-64
2022/02/14 05:57:56;;;;;;;0.95;0.40;;;30.70;58.00;;;;;;4154505;28;20103;-65
2022/02/14 06:00:18;;;;;;;1.20;0.65;;;30.70;58.20;;;;;;4177153;28;20067;-61
2022/02/14 06:02:41;;;;;;;1.95;0.70;;;30.80;58.00;;;;;;4160273;28;20074;-64
2022/02/14 06:05:04;;;;;;;1.48;0.52;;;30.80;58.10;;;;;;4153412;28;20087;-64
2022/02/14 06:07:27;;;;;;;2.05;0.88;;;30.90;57.40;;;;;;4158934;28;20041;-64
2022/02/14 06:09:49;;;;;;;3.97;1.45;;;30.90;57.20;;;;;;4153810;28;20049;-64
2022/02/14 06:12:11;;;;;;;3.22;1.05;;;30.90;57.10;;;;;;4168509;28;20040;-64
2022/02/14 06:14:34;;;;;;;2.72;1.10;;;31.00;56.60;;;;;;4163269;28;20442;-65
2022/02/14 06:16:56;;;;;;;2.22;0.90;;;31.00;56.60;;;;;;4150807;28;20143;-65
2022/02/14 06:19:21;;;;;;;2.57;0.97;;;31.00;56.90;;;;;;4146800;28;20038;-64
2022/02/14 06:21:43;;;;;;;3.30;0.90;;;31.00;57.10;;;;;;4158600;28;20048;-61
2022/02/14 06:24:06;;;;;;;3.42;0.85;;;31.10;57.20;;;;;;4161737;28;20605;-67
2022/02/14 06:26:32;;;;;;;3.63;1.00;;;31.20;57.30;;;;;;4143946;28;20040;-63
2022/02/14 06:28:54;;;;;;;2.80;0.70;;;31.20;57.20;;;;;;4144388;28;20513;-63
2022/02/14 06:31:17;;;;;;;2.67;0.95;;;31.20;56.30;;;;;;4151068;28;20703;-63
2022/02/14 06:33:39;;;;;;;2.00;0.80;;;31.20;56.10;;;;;;4162317;28;20159;-63
2022/02/14 06:36:07;;;;;;;1.50;0.80;;;31.30;56.00;;;;;;4157187;28;20561;-62
2022/02/14 06:38:29;;;;;;;3.50;0.80;;;31.30;55.80;;;;;;4161330;28;20668;-63
2022/02/14 06:40:52;;;;;;;1.67;0.75;;;31.30;55.70;;;;;;4150453;28;20063;-63
2022/02/14 06:43:14;;;;;;;3.03;0.80;;;31.40;55.60;;;;;;4155402;28;20041;-62
2022/02/14 06:45:37;;;;;;;2.05;0.52;;;31.40;55.50;;;;;;4159810;28;20064;-63
2022/02/14 06:47:59;;;;;;;3.33;0.93;;;31.40;55.40;;;;;;4161331;28;20037;-62
2022/02/14 06:50:22;;;;;;;1.65;0.85;;;31.50;55.40;;;;;;4162445;28;20186;-63
2022/02/14 06:52:44;;;;;;;3.63;0.97;;;31.50;55.20;;;;;;4137670;28;20037;-63
2022/02/14 06:55:07;;;;;;;3.08;0.95;;;31.50;55.10;;;;;;4162326;28;20052;-62
2022/02/14 06:57:31;;;;;;;0.90;0.55;;;31.50;55.10;;;;;;4163432;28;20044;-62
2022/02/14 06:59:53;;;;;;;1.92;0.60;;;31.60;55.00;;;;;;4161809;28;20110;-63
2022/02/14 07:02:16;;;;;;;1.92;0.75;;;31.60;54.90;;;;;;4159527;28;20071;-63
2022/02/14 07:04:38;;;;;;;2.92;0.60;;;31.70;54.90;;;;;;4147142;28;20106;-63
2022/02/14 07:07:00;;;;;;;0.68;0.40;;;31.70;54.70;;;;;;4156771;28;20078;-62
2022/02/14 07:09:23;;;;;;;0.63;0.30;;;31.70;54.70;;;;;;4146878;28;20048;-62
2022/02/14 07:11:45;;;;;;;2.05;0.80;;;31.70;54.60;;;;;;4149294;28;20053;-63
2022/02/14 07:14:08;;;;;;;1.20;0.40;;;31.70;54.60;;;;;;4146850;28;20037;-62
2022/02/14 07:16:30;;;;;;;2.35;0.80;;;31.70;54.50;;;;;;4146893;28;20479;-62
2022/02/14 07:18:53;;;;;;;0.98;0.60;;;31.70;54.40;;;;;;4146690;28;20048;-62
2022/02/14 07:21:17;;;;;;;0.65;0.40;;;31.70;54.40;;;;;;4152700;28;20077;-62
2022/02/14 07:23:39;;;;;;;2.25;0.60;;;31.70;54.30;;;;;;4146524;28;20061;-62
2022/02/14 07:26:01;;;;;;;1.33;0.45;;;31.70;54.30;;;;;;4153042;28;20053;-62
2022/02/14 07:28:24;;;;;;;1.65;0.65;;;31.70;54.30;;;;;;4148350;28;20042;-63
2022/02/14 07:30:47;;;;;;;1.53;0.80;;;31.70;54.20;;;;;;4147599;28;20061;-63
2022/02/14 07:33:09;;;;;;;1.92;0.57;;;31.70;54.20;;;;;;4162212;28;20029;-62
2022/02/14 07:35:32;;;;;;;2.35;0.50;;;31.70;54.20;;;;;;4155211;28;20056;-62
2022/02/14 07:37:54;;;;;;;1.23;0.70;;;31.70;54.20;;;;;;4147600;28;20053;-62
2022/02/14 07:40:19;;;;;;;1.95;0.52;;;31.70;54.20;;;;;;4146554;28;20045;-62
2022/02/14 07:42:42;;;;;;;0.80;0.35;;;31.70;54.20;;;;;;4148519;28;20048;-62
2022/02/14 07:45:06;;;;;;;2.88;0.47;;;31.70;54.20;;;;;;4161752;28;20071;-61
2022/02/14 07:47:28;;;;;;;1.60;0.60;;;31.60;54.10;;;;;;4146864;28;20044;-62
2022/02/14 07:49:51;;;;;;;1.98;0.80;;;31.60;54.20;;;;;;4146164;28;20041;-61
2022/02/14 07:52:15;;;;;;;0.88;0.47;;;31.60;54.20;;;;;;4162249;28;20522;-63
2022/02/14 07:54:38;;;;;;;1.05;0.45;;;31.60;54.30;;;;;;4162431;28;20110;-62
2022/02/14 07:57:01;;;;;;;1.17;0.45;;;31.50;54.20;;;;;;4146505;28;20112;-63
2022/02/14 07:59:23;;;;;;;1.73;0.60;;;31.50;54.30;;;;;;4143376;28;20029;-62
2022/02/14 08:01:46;;;;;;;1.00;0.45;;;31.50;54.40;;;;;;4144065;28;20048;-63
2022/02/14 08:04:08;;;;;;;2.90;0.80;;;31.50;54.30;;;;;;4152076;28;20036;-62
2022/02/14 08:06:31;;;;;;;1.20;0.50;;;31.40;54.20;;;;;;4164653;28;20581;-61
2022/02/14 08:08:53;;;;;;;2.30;0.80;;;31.40;54.30;;;;;;4130705;28;20026;-60
2022/02/14 08:11:19;;;;;;;3.22;0.90;;;31.30;54.40;;;;;;4145227;28;20044;-63
2022/02/14 08:13:42;;;;;;;1.50;0.68;;;31.30;53.10;;;;;;4151731;28;20757;-64
2022/02/14 08:16:04;;;;;;;1.45;0.90;;;31.00;51.80;;;;;;4155105;28;20156;-63
2022/02/14 08:18:27;;;;;;;1.23;0.73;;;30.80;51.30;;;;;;4168121;28;20115;-62
2022/02/14 08:20:49;;;;;;;2.50;1.08;;;30.50;51.10;;;;;;4157894;28;20081;-65
2022/02/14 08:23:12;;;;;;;2.35;1.13;;;30.20;51.00;;;;;;4151050;28;20037;-61
2022/02/14 08:25:35;;;;;;;1.80;1.10;;;29.90;50.30;;;;;;4158005;28;20052;-63
2022/02/14 08:27:59;;;;;;;2.47;1.23;;;29.60;50.50;;;;;;4167351;28;20126;-64
2022/02/14 08:30:22;;;;;;;3.22;1.35;;;29.30;50.20;;;;;;4162817;28;20048;-63
2022/02/14 08:32:45;;;;;;;2.53;1.15;;;29.10;50.20;;;;;;4167011;28;20131;-62
2022/02/14 08:35:07;;;;;;;3.17;1.50;;;28.80;49.60;;;;;;4156730;28;20030;-64
2022/02/14 08:37:30;;;;;;;1.55;0.90;;;28.70;50.00;;;;;;4157977;28;20070;-63
2022/02/14 08:39:52;;;;;;;3.13;1.20;;;28.40;50.10;;;;;;4151422;28;20757;-62
2022/02/14 08:42:15;;;;;;;2.38;0.98;;;28.20;50.00;;;;;;4135975;28;20184;-64
2022/02/14 08:44:37;;;;;;;3.28;1.83;;;28.00;50.10;;;;;;4156315;28;20094;-64
2022/02/14 08:47:00;;;;;;;2.22;1.02;;;27.80;50.00;;;;;;4157703;28;20063;-61
2022/02/14 08:49:27;;;;;;;8.05;1.38;;;27.60;50.20;;;;;;4156264;28;20117;-62
2022/02/14 08:51:49;;;;;;;2.08;1.10;;;27.50;50.20;;;;;;4159295;28;20420;-63
2022/02/14 08:54:11;;;;;;;3.75;1.13;;;27.40;51.70;;;;;;4143875;28;20484;-63
2022/02/14 08:56:34;;;;;;;4.93;0.95;;;27.40;52.40;;;;;;4159936;28;20036;-63
2022/02/14 08:58:56;;;;;;;2.40;1.05;;;27.50;51.80;;;;;;4154137;28;20590;-62
2022/02/14 09:01:19;;;;;;;1.88;0.80;;;27.60;52.30;;;;;;4156862;28;20044;-61
2022/02/14 09:03:42;;;;;;;2.45;0.75;;;27.70;52.90;;;;;;4155456;28;20052;-63
2022/02/14 09:06:04;;;;;;;2.88;0.68;;;27.80;53.30;;;;;;4153997;28;20033;-59
2022/02/14 09:08:27;;;;;;;5.90;1.15;;;27.90;53.50;;;;;;4156892;28;20200;-62
2022/02/14 09:10:49;;;;;;;4.38;0.80;;;28.00;53.80;;;;;;4148587;28;20059;-62
2022/02/14 09:13:12;;;;;;;7.63;1.20;;;28.00;54.40;;;;;;4154097;28;20033;-62
2022/02/14 09:15:34;;;;;;;3.47;1.20;;;28.20;54.90;;;;;;4146955;28;20041;-61
2022/02/14 09:17:57;;;;;;;4.68;0.88;;;28.20;55.10;;;;;;4151873;28;20479;-61
2022/02/14 09:20:23;;;;;;;3.92;1.00;;;28.30;55.20;;;;;;4151295;28;20762;-61
2022/02/14 09:22:45;;;;;;;2.70;0.80;;;28.30;55.40;;;;;;4156765;28;20091;-63
2022/02/14 09:25:08;;;;;;;5.75;1.08;;;28.40;55.40;;;;;;4153968;28;20069;-64
2022/02/14 09:27:31;;;;;;;3.40;0.93;;;28.40;55.60;;;;;;4154907;28;20272;-63
2022/02/14 09:29:53;;;;;;;3.15;0.70;;;28.50;55.70;;;;;;4140847;28;20459;-62
2022/02/14 09:32:21;;;;;;;4.03;0.85;;;28.50;55.70;;;;;;4153828;28;20037;-61
2022/02/14 09:34:44;;;;;;;3.45;0.95;;;28.60;56.00;;;;;;4143961;28;20822;-63
2022/02/14 09:37:07;;;;;;;2.53;1.00;;;28.60;55.70;;;;;;4133975;28;20056;-63
2022/02/14 09:39:33;;;;;;;3.20;0.95;;;28.60;55.20;;;;;;4158755;28;20043;-63
2022/02/14 09:41:59;;;;;;;6.13;1.70;;;28.60;55.00;;;;;;4151712;28;20049;-64
2022/02/14 09:44:21;;;;;;;4.10;1.27;;;28.60;54.90;;;;;;4147836;28;20471;-63
2022/02/14 09:46:44;;;;;;;2.60;0.88;;;28.60;55.00;;;;;;4158173;28;20053;-63
2022/02/14 09:49:07;;;;;;;3.35;1.10;;;28.60;55.20;;;;;;4158109;28;20036;-63
2022/02/14 09:51:30;;;;;;;;;;;28.60;55.30;;;;;;4156773;28;20506;-63
2022/02/14 09:53:52;;;;;;;5.53;1.60;;;28.60;55.80;;;;;;4151220;28;19918;-64
2022/02/14 09:56:15;;;;;;;3.35;1.25;;;28.60;55.50;;;;;;4156333;28;20046;-62
2022/02/14 09:58:38;;;;;;;3.75;1.15;;;28.60;55.60;;;;;;4164048;28;20048;-63
2022/02/14 10:01:00;;;;;;;2.90;0.98;;;28.60;55.70;;;;;;4148874;28;20048;-61
2022/02/14 10:03:24;;;;;;;2.63;0.85;;;28.60;55.80;;;;;;4143225;28;20403;-63
2022/02/14 10:05:50;;;;;;;2.72;1.20;;;28.50;55.80;;;;;;4152207;28;20045;-63
2022/02/14 10:08:23;;;;;;;4.80;1.30;;;28.60;56.00;;;;;;4155437;28;20492;-63
2022/02/14 10:10:46;;;;;;;3.33;1.08;;;28.60;56.00;;;;;;4152622;28;20026;-63
2022/02/14 10:13:09;;;;;;;3.00;1.00;;;28.60;56.10;;;;;;4149939;28;20186;-63
2022/02/14 10:15:34;;;;;;;3.85;1.40;;;28.50;56.10;;;;;;4146670;28;20036;-62
2022/02/14 10:18:01;;;;;;;3.35;1.35;;;28.50;56.20;;;;;;4156451;28;20049;-63
2022/02/14 10:20:26;;;;;;;2.35;0.90;;;28.50;56.30;;;;;;4156393;28;20534;-63
2022/02/14 10:22:56;;;;;;;3.58;1.02;;;28.50;56.30;;;;;;4150455;28;20126;-62
2022/02/14 10:25:41;;;;;;;2.80;1.10;;;28.50;56.40;;;;;;4138252;28;20674;-62
2022/02/14 10:28:31;;;;;;;2.28;0.90;;;28.40;56.50;;;;;;4150742;28;20654;-62
2022/02/14 10:30:59;;;;;;;2.95;1.02;;;28.50;56.80;;;;;;4149961;28;20062;-63
2022/02/14 10:33:22;;;;;;;4.18;1.48;;;28.50;56.50;;;;;;4152021;28;20032;-63
2022/02/14 10:35:48;;;;;;;2.05;1.00;;;28.40;56.50;;;;;;4151868;28;20582;-63
2022/02/14 10:38:11;;;;;;;3.85;1.23;;;28.40;56.60;;;;;;4154941;28;20076;-62
2022/02/14 10:40:39;;;;;;;4.15;1.60;;;28.40;56.70;;;;;;4153875;28;20033;-62
2022/02/14 10:43:01;;;;;;;4.55;1.60;;;28.40;56.70;;;;;;4153541;28;20033;-63
2022/02/14 10:45:25;;;;;;;3.58;1.40;;;28.40;56.90;;;;;;4150028;28;20120;-63
2022/02/14 10:47:47;;;;;;;3.13;1.17;;;28.40;56.80;;;;;;4150122;28;20041;-63
2022/02/14 10:50:11;;;;;;;3.28;1.20;;;28.40;56.90;;;;;;4151956;28;20094;-62
2022/02/14 10:52:33;;;;;;;;;;;28.40;56.90;;;;;;4159275;28;20484;-63
2022/02/14 10:54:55;;;;;;;3.70;1.30;;;28.40;57.50;;;;;;4147030;28;19925;-63
2022/02/14 10:57:29;;;;;;;2.47;0.82;;;28.40;57.20;;;;;;4151432;28;20554;-62
2022/02/14 11:00:18;;;;;;;4.38;1.10;;;28.30;57.10;;;;;;4144536;28;20111;-63
2022/02/14 11:02:43;;;;;;;4.65;1.23;;;28.40;57.50;;;;;;4133366;28;20083;-63
2022/02/14 11:05:07;;;;;;;3.78;1.40;;;28.30;57.30;;;;;;4143376;28;21010;-62
2022/02/14 11:07:29;;;;;;;3.97;1.52;;;28.30;57.30;;;;;;4152990;28;20061;-63
2022/02/14 11:09:55;;;;;;;4.15;1.27;;;28.30;57.30;;;;;;4143292;28;20350;-62
2022/02/14 11:12:21;;;;;;;4.60;1.70;;;28.30;57.40;;;;;;4153511;28;20591;-63
2022/02/14 11:14:45;;;;;;;4.57;1.65;;;28.30;57.40;;;;;;4145309;28;20099;-62
2022/02/14 11:17:10;;;;;;;3.67;1.40;;;28.30;58.10;;;;;;4146160;28;20120;-62
2022/02/14 11:19:36;;;;;;;5.55;1.67;;;28.30;57.50;;;;;;4146129;28;20067;-63
2022/02/14 11:22:03;;;;;;;4.65;1.63;;;28.20;57.50;;;;;;4153910;28;20081;-63
2022/02/14 11:24:30;;;;;;;4.28;1.40;;;28.20;58.20;;;;;;4150903;28;20040;-62
2022/02/14 11:27:03;;;;;;;3.85;1.27;;;28.30;57.70;;;;;;4146234;28;20504;-63
2022/02/14 11:29:50;;;;;;;4.90;1.38;;;28.20;57.80;;;;;;4148674;28;20041;-62
2022/02/14 11:32:22;;;;;;;3.78;0.90;;;28.20;57.90;;;;;;4150760;28;20448;-62
2022/02/14 11:35:05;;;;;;;3.08;1.20;;;28.20;57.90;;;;;;4148500;28;20663;-62
2022/02/14 11:38:06;;;;;;;5.97;1.52;;;28.20;58.00;;;;;;4151505;28;20034;-62
2022/02/14 11:40:39;;;;;;;2.35;1.10;;;28.20;58.30;;;;;;4057265;29;20040;-62
2022/02/14 11:43:08;;;;;;;3.83;1.50;;;28.20;58.00;;;;;;4057484;29;20416;-62
2022/02/14 11:45:30;;;;;;;4.30;1.40;;;28.20;58.10;;;;;;4113596;28;20488;-62
2022/02/14 11:47:56;;;;;;;4.18;1.27;;;28.20;58.10;;;;;;4144877;28;20102;-62
2022/02/14 11:50:44;;;;;;;3.00;1.13;;;28.10;58.10;;;;;;4149165;28;20397;-62
2022/02/14 11:53:44;;;;;;;4.28;1.65;;;28.10;58.40;;;;;;4148240;28;20067;-62
2022/02/14 11:56:22;;;;;;;4.97;1.48;;;28.10;58.50;;;;;;4126646;28;20519;-62
2022/02/14 11:59:04;;;;;;;4.10;1.45;;;28.10;58.30;;;;;;4149196;28;20038;-62
2022/02/14 12:01:29;;;;;;;4.25;1.48;;;28.10;58.50;;;;;;4167670;28;20397;-62
2022/02/14 12:04:14;;;;;;;4.90;1.70;;;28.00;58.20;;;;;;4138223;28;20103;-61
2022/02/14 12:07:18;;;;;;;4.53;1.40;;;28.10;58.40;;;;;;4164920;28;20151;-62
2022/02/14 12:10:00;;;;;;;6.35;1.70;;;28.00;59.20;;;;;;4157123;28;20037;-62
2022/02/14 12:12:45;;;;;;;3.92;1.33;;;28.00;58.60;;;;;;4147115;28;20060;-58
2022/02/14 12:21:00;;;;;;;3.75;1.50;;;28.00;58.60;;;;;;4162254;28;20127;-61
2022/02/14 12:23:36;;;;;;;4.70;1.65;;;28.00;58.50;;;;;;4148423;28;20073;-62
2022/02/14 12:25:59;;;;;;;4.82;1.67;;;28.00;58.70;;;;;;4145329;28;20542;-62
2022/02/14 12:28:21;;;;;;;;;;;28.00;58.60;;;;;;4147041;28;20389;-62
2022/02/14 12:30:47;;;;;;;4.80;1.90;;;27.90;59.00;;;;;;4144911;28;19916;-62
2022/02/14 12:33:11;;;;;;;4.72;1.58;;;27.90;58.60;;;;;;4157061;28;20037;-62
2022/02/14 12:35:40;;;;;;;5.15;1.58;;;27.90;58.60;;;;;;4145089;28;20033;-61
2022/02/14 12:38:03;;;;;;;3.20;1.30;;;27.90;58.70;;;;;;4153414;28;20147;-62
2022/02/14 12:40:26;;;;;;;3.40;1.50;;;27.90;58.70;;;;;;4146424;28;20550;-62
2022/02/14 12:42:48;;;;;;;4.70;1.60;;;27.90;58.70;;;;;;4147531;28;20071;-61